Time;durP1;ratioP1;P1;durP2;ratioP2;P2;SDS_P1;SDS_P2;PMS_P1;PMS_P2;Temp;Humidity;BMP_temperature;BMP_pressure;BME280_temperature;BME280_humidity;BME280_pressure;Samples;Min_cycle;Max_cycle;Signal;HPM_P1;HPM_P2
2021/11/26 00:00:57;;;;;;;14.77;2.17;;;5.70;99.90;;;;;;4842024;29;20036;-79
2021/11/26 00:03:23;;;;;;;5.30;2.10;;;5.70;99.90;;;;;;4844992;29;20034;-77
2021/11/26 00:05:48;;;;;;;6.57;1.33;;;5.60;99.90;;;;;;4857264;29;20052;-77
2021/11/26 00:08:14;;;;;;;1.73;0.75;;;5.60;99.90;;;;;;4861474;29;20036;-78
2021/11/26 00:10:40;;;;;;;7.30;0.77;;;5.60;99.90;;;;;;4844233;29;20053;-78
2021/11/26 00:13:08;;;;;;;9.07;0.70;;;5.60;99.90;;;;;;4843848;29;20035;-79
2021/11/26 00:15:39;;;;;;;4.50;0.65;;;5.70;99.90;;;;;;4843439;29;20029;-78
2021/11/26 00:18:10;;;;;;;8.77;0.90;;;5.70;99.90;;;;;;4861183;29;20065;-78
2021/11/26 00:20:37;;;;;;;5.30;1.45;;;5.70;99.90;;;;;;4860542;29;20030;-78
2021/11/26 00:23:04;;;;;;;0.95;0.68;;;5.80;99.90;;;;;;4857278;29;20500;-78
2021/11/26 00:25:29;;;;;;;3.97;0.50;;;5.80;99.90;;;;;;4859643;29;20044;-79
2021/11/26 00:27:55;;;;;;;7.05;0.85;;;5.80;99.90;;;;;;4860108;29;20029;-78
2021/11/26 00:30:21;;;;;;;0.98;0.60;;;5.80;99.90;;;;;;4860359;29;20448;-76
2021/11/26 00:32:47;;;;;;;2.97;0.52;;;5.80;99.90;;;;;;4843451;29;20034;-77
2021/11/26 00:35:13;;;;;;;3.20;0.50;;;5.80;99.90;;;;;;4859286;29;20301;-77
2021/11/26 00:37:38;;;;;;;0.75;0.40;;;5.70;99.90;;;;;;4860508;29;20441;-77
2021/11/26 00:40:05;;;;;;;0.65;0.60;;;5.70;99.90;;;;;;4859696;29;20479;-78
2021/11/26 00:42:31;;;;;;;4.63;0.52;;;5.60;99.90;;;;;;4844203;29;20042;-77
2021/11/26 00:44:56;;;;;;;5.90;0.57;;;5.60;99.90;;;;;;4832992;29;20056;-77
2021/11/26 00:47:22;;;;;;;1.55;0.35;;;5.60;99.90;;;;;;4844528;29;20479;-77
2021/11/26 00:49:50;;;;;;;1.45;0.65;;;5.60;99.90;;;;;;4860367;29;20094;-78
2021/11/26 00:52:16;;;;;;;4.07;0.82;;;5.60;99.90;;;;;;4844497;29;20411;-78
2021/11/26 00:54:41;;;;;;;5.00;0.57;;;5.60;99.90;;;;;;4859033;29;20029;-77
2021/11/26 00:57:08;;;;;;;6.70;0.70;;;5.60;99.90;;;;;;4844046;29;20029;-77
2021/11/26 00:59:37;;;;;;;4.03;0.68;;;5.60;99.90;;;;;;4842587;29;20069;-77
2021/11/26 01:02:05;;;;;;;1.88;0.55;;;5.60;99.90;;;;;;4858999;29;20056;-78
2021/11/26 01:04:32;;;;;;;4.28;0.70;;;5.60;99.90;;;;;;4843085;29;20033;-78
2021/11/26 01:06:57;;;;;;;0.70;0.30;;;5.70;99.90;;;;;;4858803;29;20480;-78
2021/11/26 01:09:23;;;;;;;2.33;0.52;;;5.80;99.90;;;;;;4859982;29;20046;-78
2021/11/26 01:11:50;;;;;;;6.28;0.52;;;5.80;99.90;;;;;;4843761;29;20030;-77
2021/11/26 01:14:16;;;;;;;3.15;0.60;;;5.90;99.90;;;;;;4859543;29;20108;-77
2021/11/26 01:16:41;;;;;;;5.30;0.60;;;5.90;99.90;;;;;;4840235;29;20509;-77
2021/11/26 01:19:07;;;;;;;1.23;0.70;;;5.90;99.90;;;;;;4857599;29;20084;-78
2021/11/26 01:21:33;;;;;;;4.78;0.50;;;5.90;99.90;;;;;;4859028;29;20057;-78
2021/11/26 01:23:59;;;;;;;8.20;0.65;;;5.90;99.90;;;;;;4842743;29;20037;-78
2021/11/26 01:26:25;;;;;;;7.30;0.70;;;5.90;99.90;;;;;;4862810;29;20026;-76
2021/11/26 01:28:51;;;;;;;1.45;0.70;;;5.90;99.90;;;;;;4846881;29;20082;-78
2021/11/26 01:31:18;;;;;;;2.63;0.73;;;5.90;99.90;;;;;;4860861;29;20201;-80
2021/11/26 01:33:44;;;;;;;7.90;0.50;;;5.90;99.90;;;;;;4862859;29;20031;-78
2021/11/26 01:36:10;;;;;;;4.40;0.60;;;5.80;99.90;;;;;;4861047;29;20037;-77
2021/11/26 01:38:36;;;;;;;1.88;0.57;;;5.80;99.90;;;;;;4844501;29;20035;-78
2021/11/26 01:41:08;;;;;;;5.75;0.45;;;5.80;99.90;;;;;;4864016;29;20046;-80
2021/11/26 01:43:34;;;;;;;0.50;0.50;;;5.80;99.90;;;;;;4848319;29;20040;-78
2021/11/26 01:46:09;;;;;;;5.05;0.95;;;5.90;99.90;;;;;;4864321;29;20490;-79
2021/11/26 01:48:37;;;;;;;2.97;0.68;;;5.90;99.90;;;;;;4864053;29;20395;-79
2021/11/26 01:51:03;;;;;;;4.03;1.65;;;5.90;99.90;;;;;;4864732;29;20029;-80
2021/11/26 01:53:29;;;;;;;1.35;0.40;;;5.80;99.90;;;;;;4847369;29;20043;-77
2021/11/26 01:55:55;;;;;;;1.45;0.28;;;5.80;99.90;;;;;;4863676;29;20483;-79
2021/11/26 01:58:21;;;;;;;0.95;0.30;;;5.80;99.90;;;;;;4847812;29;20108;-80
2021/11/26 02:00:48;;;;;;;6.80;0.60;;;5.80;99.90;;;;;;4858236;29;20468;-78
2021/11/26 02:03:14;;;;;;;5.82;0.40;;;5.80;99.90;;;;;;4860903;29;20036;-79
2021/11/26 02:05:40;;;;;;;1.48;0.38;;;5.80;99.90;;;;;;4863498;29;20053;-84
2021/11/26 02:08:08;;;;;;;0.95;0.13;;;5.80;99.90;;;;;;4860545;29;20069;-80
2021/11/26 02:10:34;;;;;;;4.05;0.57;;;5.80;99.90;;;;;;4852628;29;20033;-80
2021/11/26 02:13:00;;;;;;;3.35;0.47;;;5.90;99.90;;;;;;4869789;29;20511;-80
2021/11/26 02:15:29;;;;;;;4.47;0.28;;;5.80;99.90;;;;;;4863951;29;20037;-80
2021/11/26 02:17:56;;;;;;;0.65;0.17;;;5.80;99.90;;;;;;4845817;29;20042;-79
2021/11/26 02:20:25;;;;;;;0.98;0.30;;;5.80;99.90;;;;;;4863011;29;20033;-79
2021/11/26 02:22:52;;;;;;;7.43;0.70;;;5.80;99.90;;;;;;4862290;29;20041;-80
2021/11/26 02:25:18;;;;;;;2.63;0.40;;;5.80;99.90;;;;;;4846498;29;20040;-80
2021/11/26 02:27:44;;;;;;;3.70;0.68;;;5.80;99.90;;;;;;4846091;29;20041;-79
2021/11/26 02:30:17;;;;;;;6.55;0.40;;;5.80;99.90;;;;;;4850557;29;20057;-80
2021/11/26 02:32:52;;;;;;;3.05;0.50;;;5.60;99.90;;;;;;4863000;29;20045;-81
2021/11/26 02:35:18;;;;;;;2.80;0.40;;;5.60;99.90;;;;;;4846099;29;20030;-80
2021/11/26 02:37:44;;;;;;;3.35;0.45;;;5.50;99.90;;;;;;4856383;29;20129;-80
2021/11/26 02:40:12;;;;;;;4.93;0.50;;;5.50;99.90;;;;;;4851374;29;20502;-79
2021/11/26 02:42:39;;;;;;;3.88;0.47;;;5.50;99.90;;;;;;4862430;29;20094;-80
2021/11/26 02:45:08;;;;;;;0.22;0.20;;;5.50;99.90;;;;;;4862579;29;20614;-80
2021/11/26 02:47:35;;;;;;;0.73;0.40;;;5.50;99.90;;;;;;4860412;29;20073;-78
2021/11/26 02:50:04;;;;;;;2.67;0.52;;;5.60;99.90;;;;;;4855627;29;20034;-78
2021/11/26 02:52:30;;;;;;;3.95;0.45;;;5.60;99.90;;;;;;4838817;29;20057;-79
2021/11/26 02:54:56;;;;;;;0.25;0.20;;;5.60;99.90;;;;;;4845994;29;20029;-79
2021/11/26 02:57:21;;;;;;;5.00;0.73;;;5.70;99.90;;;;;;4846756;29;20037;-80
2021/11/26 02:59:48;;;;;;;2.40;0.50;;;5.70;99.90;;;;;;4868064;29;20049;-80
2021/11/26 03:02:14;;;;;;;5.65;0.98;;;5.70;99.90;;;;;;4863700;29;20029;-79
2021/11/26 03:04:40;;;;;;;6.50;0.90;;;5.70;99.90;;;;;;4824431;29;1078189;-79
2021/11/26 03:07:07;;;;;;;2.10;0.70;;;5.70;99.90;;;;;;4832732;29;20037;-80
2021/11/26 03:09:32;;;;;;;5.18;1.35;;;5.70;99.90;;;;;;4851017;29;20064;-80
2021/11/26 03:11:58;;;;;;;3.88;1.17;;;5.70;99.90;;;;;;4857963;29;20057;-80
2021/11/26 03:14:24;;;;;;;2.63;1.10;;;5.60;99.90;;;;;;4863177;29;20499;-80
2021/11/26 03:16:51;;;;;;;2.33;0.88;;;5.60;99.90;;;;;;4860348;29;20040;-80
2021/11/26 03:19:17;;;;;;;1.25;0.50;;;5.60;99.90;;;;;;4861928;29;20049;-80
2021/11/26 03:21:42;;;;;;;3.67;0.60;;;5.60;99.90;;;;;;4843402;29;20060;-80
2021/11/26 03:24:08;;;;;;;5.03;0.70;;;5.60;99.90;;;;;;4844174;29;20022;-78
2021/11/26 03:26:33;;;;;;;0.50;0.25;;;5.60;99.90;;;;;;4858696;29;20395;-76
2021/11/26 03:28:59;;;;;;;6.03;0.82;;;5.70;99.90;;;;;;4861903;29;20033;-78
2021/11/26 03:31:25;;;;;;;3.97;0.38;;;5.60;99.90;;;;;;4861598;29;20120;-78
2021/11/26 03:33:50;;;;;;;2.90;0.40;;;5.60;99.90;;;;;;4862215;29;20104;-77
2021/11/26 03:36:16;;;;;;;4.63;0.55;;;5.60;99.90;;;;;;4861061;29;20026;-77
2021/11/26 03:38:42;;;;;;;3.17;0.38;;;5.60;99.90;;;;;;4846109;29;20042;-78
2021/11/26 03:41:08;;;;;;;3.50;0.35;;;5.60;99.90;;;;;;4850616;29;21593;-77
2021/11/26 03:43:33;;;;;;;6.43;0.60;;;5.60;99.90;;;;;;4860890;29;20065;-78
2021/11/26 03:45:59;;;;;;;0.88;0.20;;;5.60;99.90;;;;;;4861204;29;20073;-78
2021/11/26 03:48:24;;;;;;;0.70;0.47;;;5.60;99.90;;;;;;4861645;29;20069;-78
2021/11/26 03:50:50;;;;;;;0.20;0.20;;;5.60;99.90;;;;;;4861449;29;20031;-77
2021/11/26 03:53:16;;;;;;;3.60;0.57;;;5.60;99.90;;;;;;4861157;29;20036;-77
2021/11/26 03:55:41;;;;;;;3.20;0.45;;;5.60;99.90;;;;;;4861142;29;20030;-78
2021/11/26 03:58:07;;;;;;;0.40;0.30;;;5.60;99.90;;;;;;4860122;29;20021;-77
2021/11/26 04:00:33;;;;;;;0.80;0.55;;;5.50;99.90;;;;;;4845720;29;20029;-77
2021/11/26 04:02:58;;;;;;;0.63;0.50;;;5.50;99.90;;;;;;4861704;29;20128;-78
2021/11/26 04:05:25;;;;;;;1.88;0.22;;;5.50;99.90;;;;;;4862203;29;20053;-77
2021/11/26 04:07:50;;;;;;;0.52;0.35;;;5.50;99.90;;;;;;4860813;29;20029;-76
2021/11/26 04:10:17;;;;;;;2.42;0.30;;;5.50;99.90;;;;;;4861352;29;20078;-76
2021/11/26 04:12:45;;;;;;;7.13;0.73;;;5.40;99.90;;;;;;4844258;29;20045;-77
2021/11/26 04:15:13;;;;;;;3.50;0.50;;;5.40;99.90;;;;;;4844009;29;20156;-77
2021/11/26 04:17:40;;;;;;;1.50;0.43;;;5.40;99.90;;;;;;4860728;29;20037;-76
2021/11/26 04:20:08;;;;;;;6.15;0.65;;;5.40;99.90;;;;;;4860347;29;20116;-77
2021/11/26 04:22:34;;;;;;;;;;;5.40;99.90;;;;;;4860845;29;20033;-77
2021/11/26 04:25:00;;;;;;;6.30;0.32;;;5.40;99.90;;;;;;4860960;29;20502;-77
2021/11/26 04:27:26;;;;;;;4.07;0.93;;;5.30;99.90;;;;;;4860685;29;20054;-77
2021/11/26 04:29:51;;;;;;;1.95;0.57;;;5.30;99.90;;;;;;4844495;29;20037;-76
2021/11/26 04:32:17;;;;;;;1.02;0.47;;;5.30;99.90;;;;;;4861132;29;20034;-76
2021/11/26 04:34:43;;;;;;;6.57;1.00;;;5.30;99.90;;;;;;4844544;29;20030;-78
2021/11/26 04:37:08;;;;;;;2.30;1.02;;;5.30;99.90;;;;;;4860921;29;20052;-77
2021/11/26 04:39:34;;;;;;;3.65;1.02;;;5.30;99.90;;;;;;4859953;29;20041;-78
2021/11/26 04:42:00;;;;;;;2.25;0.70;;;5.40;99.90;;;;;;4861935;29;20492;-76
2021/11/26 04:44:26;;;;;;;1.25;1.10;;;5.40;99.90;;;;;;4843883;29;20038;-77
2021/11/26 04:46:51;;;;;;;1.35;0.70;;;5.30;99.90;;;;;;4860719;29;20033;-78
2021/11/26 04:49:17;;;;;;;3.30;1.27;;;5.30;99.90;;;;;;4860292;29;20017;-78
2021/11/26 04:51:42;;;;;;;3.65;1.30;;;5.30;99.90;;;;;;4860096;29;20040;-78
2021/11/26 04:54:08;;;;;;;5.75;1.10;;;5.30;99.90;;;;;;4859770;29;20387;-78
2021/11/26 04:56:34;;;;;;;1.92;1.10;;;5.30;99.90;;;;;;4843944;29;20048;-77
2021/11/26 04:59:00;;;;;;;10.52;1.83;;;5.30;99.90;;;;;;4843629;29;20101;-76
2021/11/26 05:01:26;;;;;;;4.35;1.77;;;5.30;99.90;;;;;;4860143;29;20057;-77
2021/11/26 05:03:52;;;;;;;7.40;1.50;;;5.20;99.90;;;;;;4859616;29;20034;-77
2021/11/26 05:06:18;;;;;;;11.55;1.30;;;5.20;99.90;;;;;;4860051;29;20098;-77
2021/11/26 05:08:43;;;;;;;6.00;1.98;;;5.20;99.90;;;;;;4843197;29;20037;-76
2021/11/26 05:11:09;;;;;;;8.18;1.40;;;5.20;99.90;;;;;;4860246;29;20032;-77
2021/11/26 05:13:41;;;;;;;2.78;1.88;;;5.20;99.90;;;;;;4842838;29;20416;-76
2021/11/26 05:16:07;;;;;;;6.28;2.75;;;5.10;99.90;;;;;;4844192;29;20041;-77
2021/11/26 05:18:32;;;;;;;5.72;1.58;;;5.10;99.90;;;;;;4843372;29;20036;-76
2021/11/26 05:20:58;;;;;;;3.58;1.45;;;5.10;99.90;;;;;;4843582;29;20491;-77
2021/11/26 05:23:24;;;;;;;3.20;1.50;;;5.10;99.90;;;;;;4859595;29;20029;-76
2021/11/26 05:25:50;;;;;;;6.00;1.60;;;5.10;99.90;;;;;;4860223;29;20497;-77
2021/11/26 05:28:17;;;;;;;2.25;1.30;;;5.10;99.90;;;;;;4859885;29;20030;-76
2021/11/26 05:30:44;;;;;;;1.90;1.58;;;5.10;99.90;;;;;;4860547;29;20098;-77
2021/11/26 05:33:10;;;;;;;2.42;1.70;;;5.10;99.90;;;;;;4860059;29;20447;-77
2021/11/26 05:35:36;;;;;;;15.45;1.75;;;5.00;99.90;;;;;;4860328;29;20109;-77
2021/11/26 05:38:02;;;;;;;6.00;1.75;;;5.10;99.90;;;;;;4845416;29;20402;-76
2021/11/26 05:40:28;;;;;;;3.47;1.27;;;5.00;99.90;;;;;;4860279;29;20109;-77
2021/11/26 05:42:54;;;;;;;10.95;2.33;;;5.10;99.90;;;;;;4862598;29;20065;-76
2021/11/26 05:45:20;;;;;;;11.43;1.85;;;5.00;99.90;;;;;;4843337;29;20124;-78
2021/11/26 05:47:46;;;;;;;7.97;1.80;;;5.10;99.90;;;;;;4860593;29;20025;-78
2021/11/26 05:50:15;;;;;;;3.20;1.35;;;5.10;99.90;;;;;;4843528;29;20030;-77
2021/11/26 05:52:41;;;;;;;10.30;1.75;;;5.10;99.90;;;;;;4859679;29;20120;-75
2021/11/26 05:55:09;;;;;;;12.77;2.33;;;5.10;99.90;;;;;;4859909;29;20458;-77
2021/11/26 05:57:35;;;;;;;;;;;5.20;99.90;;;;;;4860331;29;20034;-76
2021/11/26 06:00:01;;;;;;;2.95;1.33;;;5.20;99.90;;;;;;4860015;29;19912;-76
2021/11/26 06:02:27;;;;;;;5.25;1.15;;;5.20;99.90;;;;;;4858448;29;20030;-76
2021/11/26 06:04:53;;;;;;;8.63;1.23;;;5.20;99.90;;;;;;4845514;29;20041;-76
2021/11/26 06:07:18;;;;;;;4.65;0.98;;;5.20;99.90;;;;;;4846431;29;20510;-76
2021/11/26 06:09:44;;;;;;;6.28;1.25;;;5.20;99.90;;;;;;4846008;29;20120;-77
2021/11/26 06:12:09;;;;;;;4.18;1.67;;;5.20;99.90;;;;;;4863057;29;20498;-76
2021/11/26 06:14:36;;;;;;;11.25;1.40;;;5.10;99.90;;;;;;4862904;29;20037;-76
2021/11/26 06:17:03;;;;;;;4.43;1.38;;;5.20;99.90;;;;;;4846039;29;20049;-76
2021/11/26 06:19:29;;;;;;;3.05;1.10;;;5.20;99.90;;;;;;4862627;29;20064;-77
2021/11/26 06:21:54;;;;;;;20.00;1.85;;;5.10;99.90;;;;;;4862391;29;20087;-77
2021/11/26 06:24:20;;;;;;;9.85;1.83;;;5.10;99.90;;;;;;4863078;29;20025;-77
2021/11/26 06:26:45;;;;;;;9.80;1.00;;;5.20;99.90;;;;;;4862729;29;20032;-77
2021/11/26 06:29:13;;;;;;;10.40;1.65;;;5.20;99.90;;;;;;4862461;29;20112;-77
2021/11/26 06:31:39;;;;;;;8.63;2.08;;;5.20;99.90;;;;;;4862158;29;20125;-77
2021/11/26 06:34:05;;;;;;;10.95;1.45;;;5.20;99.90;;;;;;4845996;29;20021;-77
2021/11/26 06:36:31;;;;;;;4.93;1.25;;;5.10;99.90;;;;;;4846020;29;20132;-77
2021/11/26 06:38:57;;;;;;;13.23;1.92;;;5.10;99.90;;;;;;4862621;29;20057;-77
2021/11/26 06:41:23;;;;;;;15.82;2.15;;;5.10;99.90;;;;;;4863072;29;20064;-77
2021/11/26 06:43:49;;;;;;;8.13;1.00;;;5.10;99.90;;;;;;4853279;29;20037;-77
2021/11/26 06:46:14;;;;;;;4.72;1.00;;;5.10;99.90;;;;;;4867882;29;20104;-76
2021/11/26 06:48:40;;;;;;;7.35;1.50;;;5.10;99.90;;;;;;4862742;29;20373;-77
2021/11/26 06:51:05;;;;;;;5.85;1.63;;;5.10;99.90;;;;;;4845411;29;20507;-75
2021/11/26 06:53:31;;;;;;;0.95;0.68;;;5.10;99.90;;;;;;4862384;29;20114;-77
2021/11/26 06:55:57;;;;;;;5.28;2.03;;;5.00;99.90;;;;;;4861758;29;20121;-77
2021/11/26 06:58:22;;;;;;;12.05;1.58;;;5.00;99.90;;;;;;4861785;29;20037;-77
2021/11/26 07:00:48;;;;;;;6.13;1.25;;;5.00;99.90;;;;;;4845404;29;20033;-76
2021/11/26 07:03:14;;;;;;;11.70;2.22;;;5.10;99.90;;;;;;4862121;29;20061;-77
2021/11/26 07:05:39;;;;;;;10.80;2.75;;;5.00;99.90;;;;;;4861473;29;20045;-77
2021/11/26 07:08:05;;;;;;;8.75;1.25;;;5.00;99.90;;;;;;4845799;29;20064;-78
2021/11/26 07:10:31;;;;;;;9.60;1.67;;;5.00;99.90;;;;;;4845407;29;20037;-78
2021/11/26 07:12:56;;;;;;;9.00;1.63;;;5.00;99.90;;;;;;4861917;29;20038;-76
2021/11/26 07:15:22;;;;;;;12.98;2.70;;;5.10;99.90;;;;;;4844427;29;20060;-76
2021/11/26 07:17:48;;;;;;;4.78;1.60;;;5.10;99.90;;;;;;4862278;29;20032;-77
2021/11/26 07:20:14;;;;;;;11.52;1.73;;;5.10;99.90;;;;;;4861747;29;20026;-78
2021/11/26 07:22:41;;;;;;;17.80;1.38;;;5.10;99.90;;;;;;4861908;29;20041;-77
2021/11/26 07:25:07;;;;;;;7.45;1.35;;;5.10;99.90;;;;;;4861099;29;20035;-77
2021/11/26 07:27:33;;;;;;;2.92;1.10;;;5.10;99.90;;;;;;4861295;29;20030;-76
2021/11/26 07:29:58;;;;;;;6.95;1.02;;;5.10;99.90;;;;;;4845050;29;20025;-76
2021/11/26 07:32:24;;;;;;;5.47;1.95;;;5.10;99.90;;;;;;4844899;29;20077;-77
2021/11/26 07:34:51;;;;;;;4.03;0.98;;;5.10;99.90;;;;;;4845166;29;20034;-76
2021/11/26 07:37:17;;;;;;;6.70;1.35;;;5.20;99.90;;;;;;4861927;29;20395;-76
2021/11/26 07:39:43;;;;;;;6.80;1.58;;;5.10;99.90;;;;;;4844399;29;20125;-78
2021/11/26 07:42:11;;;;;;;2.85;1.10;;;5.10;99.90;;;;;;4845439;29;20037;-77
2021/11/26 07:44:38;;;;;;;7.97;1.20;;;5.10;99.90;;;;;;4861678;29;20034;-76
2021/11/26 07:47:06;;;;;;;3.88;1.45;;;5.10;99.90;;;;;;4861734;29;20069;-77
2021/11/26 07:49:32;;;;;;;6.65;1.30;;;5.10;99.90;;;;;;4861667;29;20034;-77
2021/11/26 07:52:00;;;;;;;11.57;1.30;;;5.20;99.90;;;;;;4845182;29;20089;-77
2021/11/26 07:54:26;;;;;;;3.80;0.88;;;5.20;99.90;;;;;;4861260;29;20388;-77
2021/11/26 07:56:52;;;;;;;4.30;1.33;;;5.20;99.90;;;;;;4861053;29;20333;-78
2021/11/26 07:59:19;;;;;;;11.30;1.20;;;5.20;99.90;;;;;;4844402;29;20033;-77
2021/11/26 08:01:45;;;;;;;11.85;1.73;;;5.30;99.90;;;;;;4868214;29;20048;-77
2021/11/26 08:04:11;;;;;;;4.05;0.88;;;5.20;99.90;;;;;;4861063;29;20030;-77
2021/11/26 08:06:36;;;;;;;10.10;1.38;;;5.30;99.90;;;;;;4861068;29;20126;-78
2021/11/26 08:09:07;;;;;;;12.07;1.60;;;5.30;99.90;;;;;;4860877;29;20026;-78
2021/11/26 08:11:33;;;;;;;11.13;2.90;;;5.40;99.90;;;;;;4844591;29;20578;-78
2021/11/26 08:13:58;;;;;;;10.30;1.20;;;5.40;99.90;;;;;;4844907;29;20124;-77
2021/11/26 08:16:24;;;;;;;8.35;1.33;;;5.30;99.90;;;;;;4860899;29;20044;-79
2021/11/26 08:18:49;;;;;;;6.07;1.10;;;5.30;99.90;;;;;;4844325;29;20026;-78
2021/11/26 08:21:15;;;;;;;3.15;1.13;;;5.30;99.90;;;;;;4844131;29;20057;-78
2021/11/26 08:23:41;;;;;;;8.25;1.55;;;5.40;99.90;;;;;;4844011;29;20427;-79
2021/11/26 08:26:06;;;;;;;3.75;1.05;;;5.40;99.90;;;;;;4843777;29;20034;-79
2021/11/26 08:28:50;;;;;;;7.45;1.50;;;5.40;99.90;;;;;;4844288;29;20022;-78
2021/11/26 08:31:17;;;;;;;11.25;1.48;;;5.50;99.90;;;;;;4860334;29;20563;-78
2021/11/26 08:33:43;;;;;;;13.63;1.40;;;5.50;99.90;;;;;;4860817;29;20084;-78
2021/11/26 08:36:08;;;;;;;16.05;1.70;;;5.60;99.90;;;;;;4861458;29;20317;-77
2021/11/26 08:38:34;;;;;;;8.50;1.10;;;5.60;99.90;;;;;;4860461;29;20041;-78
2021/11/26 08:41:00;;;;;;;5.95;1.50;;;5.60;99.90;;;;;;4869233;29;20040;-78
2021/11/26 08:43:25;;;;;;;8.50;1.40;;;5.50;99.90;;;;;;4849446;29;20036;-78
2021/11/26 08:45:51;;;;;;;6.70;1.33;;;5.60;99.90;;;;;;4863670;29;20487;-79
2021/11/26 08:48:17;;;;;;;4.78;1.80;;;5.60;99.90;;;;;;4861495;29;20082;-78
2021/11/26 08:50:44;;;;;;;6.57;1.67;;;5.70;99.90;;;;;;4860130;29;20045;-78
2021/11/26 08:53:10;;;;;;;12.02;1.98;;;5.60;99.90;;;;;;4880523;29;20030;-78
2021/11/26 08:55:38;;;;;;;10.55;2.03;;;5.60;99.90;;;;;;4882434;29;20013;-79
2021/11/26 08:58:06;;;;;;;13.88;2.10;;;5.70;99.90;;;;;;4882780;29;20014;-77
2021/11/26 09:00:33;;;;;;;6.38;1.90;;;5.80;99.90;;;;;;4848099;29;20040;-78
2021/11/26 09:03:02;;;;;;;15.35;2.75;;;5.90;99.90;;;;;;4854648;29;20040;-79
2021/11/26 09:05:27;;;;;;;10.52;2.72;;;5.90;99.90;;;;;;4863951;29;20048;-78
2021/11/26 09:07:59;;;;;;;19.13;6.75;;;5.90;99.90;;;;;;4863121;29;20033;-79
2021/11/26 09:10:26;;;;;;;9.27;3.38;;;5.90;99.90;;;;;;4861805;29;20093;-78
2021/11/26 09:12:52;;;;;;;7.50;2.63;;;5.90;99.90;;;;;;4845144;29;20037;-78
2021/11/26 09:15:18;;;;;;;11.35;2.63;;;6.00;99.90;;;;;;4842815;29;20047;-77
2021/11/26 09:17:44;;;;;;;13.05;2.53;;;5.90;99.90;;;;;;4860267;29;20091;-78
2021/11/26 09:20:11;;;;;;;9.10;2.80;;;5.80;99.90;;;;;;4860274;29;20037;-78
2021/11/26 09:22:37;;;;;;;12.13;3.10;;;5.80;99.90;;;;;;4843586;29;20093;-82
2021/11/26 09:25:05;;;;;;;11.15;2.47;;;5.80;99.90;;;;;;4847372;29;20037;-79
2021/11/26 09:27:30;;;;;;;;;;;5.80;99.90;;;;;;4878331;29;20029;-83
2021/11/26 09:29:56;;;;;;;12.93;4.05;;;5.80;99.90;;;;;;4861873;29;20366;-81
2021/11/26 09:32:22;;;;;;;18.30;3.95;;;5.80;99.90;;;;;;4842131;29;20069;-80
2021/11/26 09:34:48;;;;;;;15.55;3.55;;;5.80;99.90;;;;;;4843988;29;20034;-79
2021/11/26 09:37:14;;;;;;;26.10;4.93;;;5.80;99.90;;;;;;4860791;29;20120;-79
2021/11/26 09:39:40;;;;;;;17.33;4.60;;;5.80;99.90;;;;;;4862800;29;20489;-79
2021/11/26 09:42:08;;;;;;;16.48;3.22;;;5.80;99.90;;;;;;4863408;29;20116;-81
2021/11/26 09:44:35;;;;;;;26.77;3.65;;;5.80;99.90;;;;;;4864275;29;20041;-80
2021/11/26 09:47:02;;;;;;;16.40;4.47;;;5.90;99.90;;;;;;4861317;29;20455;-80
2021/11/26 09:49:29;;;;;;;19.38;3.63;;;5.80;99.90;;;;;;4863172;29;20037;-81
2021/11/26 09:51:55;;;;;;;15.55;3.70;;;5.80;99.90;;;;;;4847750;29;20136;-80
2021/11/26 09:54:21;;;;;;;12.32;3.00;;;5.90;99.90;;;;;;4863375;29;20073;-80
2021/11/26 09:56:47;;;;;;;15.93;3.10;;;5.90;99.90;;;;;;4846017;29;20033;-80
2021/11/26 09:59:13;;;;;;;9.00;2.60;;;5.90;99.90;;;;;;4864163;29;20030;-78
2021/11/26 10:01:38;;;;;;;12.38;3.45;;;6.00;99.90;;;;;;4863506;29;20034;-80
2021/11/26 10:04:14;;;;;;;11.82;2.30;;;6.00;99.90;;;;;;4864025;29;20045;-79
2021/11/26 10:06:44;;;;;;;9.07;2.75;;;6.00;99.90;;;;;;4863930;29;20061;-81
2021/11/26 10:09:19;;;;;;;19.00;3.67;;;6.10;99.90;;;;;;4847202;29;20128;-79
2021/11/26 10:11:56;;;;;;;10.07;3.10;;;6.10;99.90;;;;;;4850072;29;20120;-80
2021/11/26 10:14:25;;;;;;;16.77;3.15;;;6.10;99.90;;;;;;4848659;29;20044;-80
2021/11/26 10:16:54;;;;;;;11.57;2.55;;;6.20;99.90;;;;;;4864041;29;20116;-81
2021/11/26 10:19:35;;;;;;;12.80;2.42;;;6.30;99.90;;;;;;4854957;29;20014;-80
2021/11/26 10:22:15;;;;;;;8.20;1.92;;;6.30;99.90;;;;;;4859687;29;20091;-80
2021/11/26 10:24:42;;;;;;;13.45;2.47;;;6.40;99.90;;;;;;4861225;29;20081;-82
2021/11/26 10:27:08;;;;;;;6.07;2.00;;;6.40;99.90;;;;;;4863790;29;20036;-80
2021/11/26 10:29:37;;;;;;;6.60;2.13;;;6.40;99.90;;;;;;4845447;29;20486;-83
2021/11/26 10:32:12;;;;;;;9.65;2.33;;;6.50;99.90;;;;;;4862468;29;20026;-81
2021/11/26 10:34:40;;;;;;;11.60;2.53;;;6.50;99.90;;;;;;4847070;29;20384;-80
2021/11/26 10:37:20;;;;;;;12.68;2.50;;;6.60;99.90;;;;;;4854852;29;20074;-80
2021/11/26 10:39:46;;;;;;;12.70;2.33;;;6.60;99.90;;;;;;4863805;29;20025;-79
2021/11/26 10:42:23;;;;;;;5.85;2.03;;;6.50;99.90;;;;;;4863671;29;20590;-81
2021/11/26 10:45:03;;;;;;;10.10;2.80;;;6.50;99.90;;;;;;4863386;29;20029;-80
2021/11/26 10:58:49;;;;;;;6.93;1.40;;;6.60;99.90;;;;;;4861485;29;20041;-79
2021/11/26 11:01:15;;;;;;;3.55;1.40;;;6.50;99.90;;;;;;4853263;29;20602;-80
2021/11/26 11:03:43;;;;;;;5.78;1.63;;;6.50;99.90;;;;;;4862555;29;20037;-79
2021/11/26 11:06:25;;;;;;;6.95;1.70;;;6.60;99.90;;;;;;4861305;29;20042;-79
2021/11/26 11:09:02;;;;;;;9.68;1.60;;;6.60;99.90;;;;;;4845574;29;20030;-79
2021/11/26 11:11:28;;;;;;;9.27;2.35;;;6.70;99.90;;;;;;4840321;29;20033;-79
2021/11/26 11:13:55;;;;;;;5.10;1.40;;;6.70;99.90;;;;;;4854454;29;20104;-81
2021/11/26 11:16:21;;;;;;;5.10;2.15;;;6.60;99.90;;;;;;4857493;29;20092;-79
2021/11/26 11:18:47;;;;;;;8.63;1.52;;;6.50;99.90;;;;;;4839377;29;20041;-78
2021/11/26 11:21:13;;;;;;;10.00;1.73;;;6.50;99.90;;;;;;4856603;29;20042;-77
2021/11/26 11:23:39;;;;;;;5.00;1.55;;;6.40;99.90;;;;;;4859851;29;20057;-78
2021/11/26 11:26:05;;;;;;;6.38;1.60;;;6.30;99.90;;;;;;4862421;29;20563;-78
2021/11/26 11:28:31;;;;;;;8.38;2.50;;;6.30;99.90;;;;;;4862539;29;20057;-78
2021/11/26 11:30:58;;;;;;;9.13;1.85;;;6.20;99.90;;;;;;4861857;29;20029;-79
2021/11/26 11:33:24;;;;;;;5.00;1.20;;;6.20;99.90;;;;;;4860577;29;20029;-78
2021/11/26 11:35:51;;;;;;;5.18;2.15;;;6.20;99.90;;;;;;4862380;29;20518;-80
2021/11/26 11:38:18;;;;;;;4.18;1.45;;;6.20;99.90;;;;;;4862169;29;20387;-81
2021/11/26 11:40:49;;;;;;;2.47;1.35;;;6.00;99.90;;;;;;4844892;29;20029;-80
2021/11/26 11:43:21;;;;;;;6.20;1.50;;;5.90;99.90;;;;;;4860990;29;20086;-78
2021/11/26 11:46:06;;;;;;;8.88;1.85;;;5.90;99.90;;;;;;4859804;29;20037;-81
2021/11/26 11:48:38;;;;;;;18.17;3.50;;;5.90;99.90;;;;;;4861854;29;20479;-78
2021/11/26 11:51:06;;;;;;;10.40;2.30;;;5.90;99.90;;;;;;4861594;29;20041;-76
2021/11/26 11:53:36;;;;;;;4.75;1.80;;;5.90;99.90;;;;;;4845040;29;20037;-80
2021/11/26 11:56:21;;;;;;;10.25;2.05;;;5.90;99.90;;;;;;4861522;29;20037;-80
2021/11/26 11:58:56;;;;;;;9.25;2.03;;;5.80;99.90;;;;;;4844966;29;20049;-80
2021/11/26 12:01:27;;;;;;;4.95;2.35;;;5.90;99.90;;;;;;4860394;29;20116;-79
2021/11/26 12:03:57;;;;;;;8.13;2.40;;;5.80;99.90;;;;;;4843039;29;20158;-79
2021/11/26 12:06:35;;;;;;;13.07;2.83;;;5.80;99.90;;;;;;4861489;29;20065;-80
2021/11/26 12:09:02;;;;;;;9.32;2.95;;;5.80;99.90;;;;;;4859666;29;20498;-81
2021/11/26 12:11:33;;;;;;;7.95;3.15;;;5.70;99.90;;;;;;4844959;29;20072;-79
2021/11/26 12:14:08;;;;;;;9.55;3.78;;;5.70;99.90;;;;;;4861416;29;20134;-79
2021/11/26 12:16:49;;;;;;;7.25;3.17;;;5.70;99.90;;;;;;4860517;29;20034;-79
2021/11/26 12:19:24;;;;;;;11.55;3.83;;;5.70;99.90;;;;;;4862099;29;20492;-80
2021/11/26 12:21:53;;;;;;;7.50;3.30;;;5.70;99.90;;;;;;4859316;29;20480;-79
2021/11/26 12:24:27;;;;;;;6.25;2.70;;;5.70;99.90;;;;;;4843724;29;20025;-80
2021/11/26 12:26:59;;;;;;;4.15;2.97;;;5.70;99.90;;;;;;4845252;29;20033;-79
2021/11/26 12:29:35;;;;;;;8.38;3.25;;;5.60;99.90;;;;;;4860890;29;20033;-79
2021/11/26 12:32:38;;;;;;;8.15;3.20;;;5.50;99.90;;;;;;4860548;29;20084;-79
2021/11/26 12:35:11;;;;;;;4.75;2.60;;;5.40;99.90;;;;;;4839532;29;20045;-78
2021/11/26 12:37:37;;;;;;;10.27;2.70;;;5.30;99.90;;;;;;4850605;29;20101;-77
2021/11/26 12:40:09;;;;;;;5.93;2.35;;;5.30;99.90;;;;;;4841545;29;20029;-80
2021/11/26 12:42:35;;;;;;;3.72;2.40;;;5.20;99.90;;;;;;4853882;29;20041;-77
2021/11/26 12:45:07;;;;;;;5.75;2.20;;;5.20;99.90;;;;;;4854081;29;20504;-80
2021/11/26 12:48:00;;;;;;;6.28;3.30;;;5.10;99.90;;;;;;4860875;29;20033;-78
2021/11/26 12:53:14;;;;;;;3.25;2.47;;;5.10;99.90;;;;;;4857534;29;20037;-79
2021/11/26 12:55:57;;;;;;;4.25;2.65;;;5.10;99.90;;;;;;4834251;29;20046;-80
2021/11/26 12:58:24;;;;;;;2.83;2.13;;;5.10;99.90;;;;;;4837355;29;20178;-81
2021/11/26 13:01:03;;;;;;;5.10;2.90;;;5.10;99.90;;;;;;4823412;29;20050;-81
2021/11/26 13:03:40;;;;;;;5.43;2.70;;;5.10;99.90;;;;;;4825673;29;20366;-80
2021/11/26 13:06:05;;;;;;;4.03;2.10;;;5.10;99.90;;;;;;4824916;29;20099;-79
2021/11/26 13:08:32;;;;;;;4.30;2.00;;;5.10;99.90;;;;;;4840431;29;20046;-81
2021/11/26 13:11:02;;;;;;;3.08;1.77;;;5.10;99.90;;;;;;4819391;29;20042;-80